createdAt,value
2018-02-20T00:00:30.050Z,20.73
2018-02-20T00:01:01.678Z,20.64
2018-02-20T00:01:33.302Z,20.54
2018-02-20T00:02:04.926Z,20.43
2018-02-20T00:02:36.550Z,20.37
2018-02-20T00:03:08.218Z,20.34
2018-02-20T00:03:39.846Z,20.32
2018-02-20T00:04:11.466Z,20.33
2018-02-20T00:04:43.094Z,20.34
2018-02-20T00:05:14.724Z,20.36
2018-02-20T00:05:46.350Z,20.42
2018-02-20T00:06:17.974Z,20.44
2018-02-20T00:06:49.602Z,20.47
2018-02-20T00:07:21.226Z,20.47
2018-02-20T00:07:52.890Z,20.50
2018-02-20T00:08:24.549Z,20.50
2018-02-20T00:08:56.213Z,20.50
2018-02-20T00:09:27.839Z,20.50
2018-02-20T00:09:59.466Z,20.51
2018-02-20T00:10:31.090Z,20.52
2018-02-20T00:11:02.726Z,20.53
2018-02-20T00:11:34.354Z,20.54
2018-02-20T00:12:05.987Z,20.56
2018-02-20T00:12:37.610Z,20.57
2018-02-20T00:13:09.336Z,20.57
2018-02-20T00:13:41.009Z,20.56
2018-02-20T00:14:12.682Z,20.57
2018-02-20T00:14:44.305Z,20.57
2018-02-20T00:15:15.930Z,20.59
2018-02-20T00:15:47.558Z,20.59
2018-02-20T00:16:19.186Z,20.60
2018-02-20T00:16:50.818Z,20.60
2018-02-20T00:17:22.442Z,20.58
2018-02-20T00:17:54.070Z,20.57
2018-02-20T00:18:25.698Z,20.57
2018-02-20T00:18:57.322Z,20.57
2018-02-20T00:19:28.954Z,20.58
2018-02-20T00:20:00.614Z,20.59
2018-02-20T00:20:32.286Z,20.59
2018-02-20T00:21:04.098Z,20.58
2018-02-20T00:21:35.722Z,20.59
2018-02-20T00:22:07.346Z,20.50
2018-02-20T00:22:38.969Z,20.59
2018-02-20T00:23:10.599Z,20.59
2018-02-20T00:23:42.221Z,20.61
2018-02-20T00:24:13.850Z,20.57
2018-02-20T00:24:45.482Z,20.56
2018-02-20T00:25:17.137Z,20.55
2018-02-20T00:25:49.337Z,20.57
2018-02-20T00:26:21.002Z,20.56
2018-02-20T00:26:52.626Z,20.56
2018-02-20T00:27:24.249Z,20.53
2018-02-20T00:27:55.874Z,20.53
2018-02-20T00:28:27.501Z,20.53
2018-02-20T00:28:59.131Z,20.53
2018-02-20T00:29:30.754Z,20.53
2018-02-20T00:30:02.378Z,20.56
2018-02-20T00:30:34.011Z,20.58
2018-02-20T00:31:05.687Z,20.56
2018-02-20T00:31:37.399Z,20.53
2018-02-20T00:32:09.031Z,20.56
2018-02-20T00:32:40.818Z,20.56
2018-02-20T00:33:12.490Z,20.56
2018-02-20T00:33:44.114Z,20.57
2018-02-20T00:34:15.738Z,20.56
2018-02-20T00:34:47.370Z,20.54
2018-02-20T00:35:19.006Z,20.53
2018-02-20T00:35:50.638Z,20.53
2018-02-20T00:36:22.266Z,20.54
2018-02-20T00:36:53.939Z,20.54
2018-02-20T00:37:25.566Z,20.53
2018-02-20T00:37:57.199Z,20.52
2018-02-20T00:38:28.826Z,20.50
2018-02-20T00:39:00.460Z,20.50
2018-02-20T00:39:32.090Z,20.50
2018-02-20T00:40:03.715Z,20.51
2018-02-20T00:40:35.386Z,20.50
2018-02-20T00:41:07.022Z,20.48
2018-02-20T00:41:38.649Z,20.47
2018-02-20T00:42:10.270Z,20.48
2018-02-20T00:42:41.894Z,20.48
2018-02-20T00:43:13.714Z,20.48
2018-02-20T00:43:45.348Z,20.45
2018-02-20T00:44:16.974Z,20.45
2018-02-20T00:44:48.606Z,20.46
2018-02-20T00:45:20.230Z,20.46
2018-02-20T00:45:51.854Z,20.49
2018-02-20T00:46:23.478Z,20.48
2018-02-20T00:46:55.097Z,20.47
2018-02-20T00:47:26.730Z,20.48
2018-02-20T00:47:58.353Z,20.49
2018-02-20T00:48:30.019Z,20.48
2018-02-20T00:49:01.642Z,20.49
2018-02-20T00:49:33.274Z,20.49
2018-02-20T00:50:04.958Z,20.50
2018-02-20T00:50:36.581Z,20.47
2018-02-20T00:51:08.214Z,20.47
2018-02-20T00:51:39.843Z,20.46
2018-02-20T00:52:11.466Z,20.47
2018-02-20T00:52:43.099Z,20.48
2018-02-20T00:53:14.726Z,20.49
2018-02-20T00:53:46.350Z,20.50
2018-02-20T00:54:17.974Z,20.50
2018-02-20T00:54:49.598Z,20.51
2018-02-20T00:55:21.267Z,20.51
2018-02-20T00:55:52.894Z,20.53
2018-02-20T00:56:24.526Z,20.52
2018-02-20T00:56:56.158Z,20.50
2018-02-20T00:57:27.787Z,20.52
2018-02-20T00:57:59.410Z,20.51
2018-02-20T00:58:31.034Z,20.48
2018-02-20T00:59:02.846Z,20.48
2018-02-20T00:59:34.475Z,20.49
2018-02-20T01:00:06.098Z,20.50
2018-02-20T01:00:37.723Z,20.49
2018-02-20T01:01:09.345Z,20.52
2018-02-20T01:01:40.969Z,20.50
2018-02-20T01:02:12.593Z,20.54
2018-02-20T01:02:44.215Z,20.53
2018-02-20T01:03:15.842Z,20.55
2018-02-20T01:03:47.466Z,20.54
2018-02-20T01:04:19.090Z,20.57
2018-02-20T01:04:50.718Z,20.57
2018-02-20T01:05:22.342Z,20.56
2018-02-20T01:05:54.014Z,20.55
2018-02-20T01:06:25.646Z,20.55
2018-02-20T01:06:57.269Z,20.54
2018-02-20T01:07:28.893Z,20.55
2018-02-20T01:08:00.523Z,20.47
2018-02-20T01:08:32.156Z,20.53
2018-02-20T01:09:03.812Z,20.53
2018-02-20T01:09:35.438Z,20.52
2018-02-20T01:10:07.066Z,20.54
2018-02-20T01:10:38.690Z,20.55
2018-02-20T01:11:10.365Z,20.54
2018-02-20T01:11:41.995Z,20.54
2018-02-20T01:12:13.622Z,20.52
2018-02-20T01:12:45.250Z,20.51
2018-02-20T01:13:16.883Z,20.54
2018-02-20T01:13:48.505Z,20.55
2018-02-20T01:14:20.134Z,20.55
2018-02-20T01:14:51.758Z,20.53
2018-02-20T01:15:23.386Z,20.49
2018-02-20T01:15:55.010Z,20.55
2018-02-20T01:16:26.676Z,20.55
2018-02-20T01:16:58.310Z,20.54
2018-02-20T01:17:29.934Z,20.53
2018-02-20T01:18:01.558Z,20.52
2018-02-20T01:18:33.182Z,20.51
2018-02-20T01:19:04.811Z,20.52
2018-02-20T01:19:36.434Z,20.50
2018-02-20T01:20:08.057Z,20.49
2018-02-20T01:20:39.687Z,20.49
2018-02-20T01:21:11.358Z,20.47
2018-02-20T01:21:42.987Z,20.47
2018-02-20T01:22:14.619Z,20.45
2018-02-20T01:22:46.242Z,20.49
2018-02-20T01:23:17.917Z,20.48
2018-02-20T01:23:49.538Z,20.50
2018-02-20T01:24:21.162Z,20.49
2018-02-20T01:24:52.798Z,20.47
2018-02-20T01:25:24.427Z,20.48
2018-02-20T01:25:56.053Z,20.46
2018-02-20T01:26:27.682Z,20.46
2018-02-20T01:26:59.306Z,20.42
2018-02-20T01:27:30.934Z,20.42
2018-02-20T01:28:02.565Z,20.40
2018-02-20T01:28:34.234Z,20.43
2018-02-20T01:29:05.866Z,20.41
2018-02-20T01:29:37.490Z,20.38
2018-02-20T01:30:09.118Z,20.40
2018-02-20T01:30:40.747Z,20.39
2018-02-20T01:31:12.378Z,20.36
2018-02-20T01:31:44.011Z,20.34
2018-02-20T01:32:15.638Z,20.36
2018-02-20T01:32:47.266Z,20.35
2018-02-20T01:33:18.889Z,20.34
2018-02-20T01:33:50.574Z,20.32
2018-02-20T01:34:22.202Z,20.30
2018-02-20T01:34:53.834Z,20.33
2018-02-20T01:35:25.466Z,20.32
2018-02-20T01:35:57.090Z,20.33
2018-02-20T01:36:28.721Z,20.35
2018-02-20T01:37:00.343Z,20.30
2018-02-20T01:37:31.974Z,20.31
2018-02-20T01:38:03.598Z,20.28
2018-02-20T01:38:35.226Z,20.20
2018-02-20T01:39:06.902Z,20.28
2018-02-20T01:39:38.532Z,20.25
2018-02-20T01:40:10.158Z,20.24
2018-02-20T01:40:41.787Z,20.25
2018-02-20T01:41:13.416Z,20.26
2018-02-20T01:41:45.046Z,20.26
2018-02-20T01:42:16.670Z,20.25
2018-02-20T01:42:48.302Z,20.27
2018-02-20T01:43:19.925Z,20.28
2018-02-20T01:43:51.558Z,20.28
2018-02-20T01:44:23.247Z,20.29
2018-02-20T01:44:54.876Z,20.29
2018-02-20T01:45:26.527Z,20.28
2018-02-20T01:45:58.154Z,20.26
2018-02-20T01:46:29.783Z,20.24
2018-02-20T01:47:01.414Z,20.24
2018-02-20T01:47:33.042Z,20.22
2018-02-20T01:48:04.670Z,20.22
2018-02-20T01:48:36.298Z,20.21
2018-02-20T01:49:07.925Z,20.19
2018-02-20T01:49:39.590Z,20.21
2018-02-20T01:50:11.218Z,20.22
2018-02-20T01:50:42.885Z,20.25
2018-02-20T01:51:14.505Z,20.25
2018-02-20T01:51:46.139Z,20.29
2018-02-20T01:52:17.766Z,20.29
2018-02-20T01:52:49.391Z,20.26
2018-02-20T01:53:21.018Z,20.25
2018-02-20T01:53:52.641Z,20.25
2018-02-20T01:54:24.265Z,20.28
2018-02-20T01:54:55.954Z,20.24
2018-02-20T01:55:27.578Z,20.26
2018-02-20T01:55:59.206Z,20.19
2018-02-20T01:56:30.835Z,20.26
2018-02-20T01:57:02.463Z,20.26
2018-02-20T01:57:34.095Z,20.28
2018-02-20T01:58:05.769Z,20.30
2018-02-20T01:58:37.385Z,20.29
2018-02-20T01:59:09.011Z,20.29
2018-02-20T01:59:40.638Z,20.28
2018-02-20T02:00:12.322Z,20.29
2018-02-20T02:00:43.946Z,20.32
2018-02-20T02:01:15.570Z,20.33
2018-02-20T02:01:47.197Z,20.35
2018-02-20T02:02:18.822Z,20.36
2018-02-20T02:02:50.451Z,20.34
2018-02-20T02:03:22.077Z,20.33
2018-02-20T02:03:53.707Z,20.31
2018-02-20T02:04:25.339Z,20.31
2018-02-20T02:04:56.963Z,20.31
2018-02-20T02:05:28.642Z,20.30
2018-02-20T02:06:00.269Z,20.28
2018-02-20T02:06:31.902Z,20.28
2018-02-20T02:07:03.530Z,20.27
2018-02-20T02:07:35.154Z,20.25
2018-02-20T02:08:06.778Z,20.27
2018-02-20T02:08:38.406Z,20.28
2018-02-20T02:09:10.030Z,20.29
2018-02-20T02:09:41.658Z,20.30
2018-02-20T02:10:13.281Z,20.33
2018-02-20T02:10:44.954Z,20.33
2018-02-20T02:11:16.574Z,20.33
2018-02-20T02:11:48.203Z,20.32
2018-02-20T02:12:19.826Z,20.33
2018-02-20T02:12:51.455Z,20.32
2018-02-20T02:13:23.082Z,20.31
2018-02-20T02:13:54.711Z,20.33
2018-02-20T02:14:26.337Z,20.35
2018-02-20T02:14:57.967Z,20.35
2018-02-20T02:15:29.592Z,20.33
2018-02-20T02:16:01.214Z,20.32
2018-02-20T02:16:32.846Z,20.34
2018-02-20T02:17:04.470Z,20.35
2018-02-20T02:17:36.102Z,20.35
2018-02-20T02:18:07.726Z,20.35
2018-02-20T02:18:39.349Z,20.36
2018-02-20T02:19:10.978Z,20.34
2018-02-20T02:19:42.610Z,20.35
2018-02-20T02:20:14.243Z,20.34
2018-02-20T02:20:45.915Z,20.35
2018-02-20T02:21:17.547Z,20.36
2018-02-20T02:21:49.170Z,20.37
2018-02-20T02:22:20.802Z,20.38
2018-02-20T02:22:52.425Z,20.36
2018-02-20T02:23:24.054Z,20.39
2018-02-20T02:23:55.679Z,20.40
2018-02-20T02:24:27.309Z,20.39
2018-02-20T02:24:58.966Z,20.42
2018-02-20T02:25:30.590Z,20.43
2018-02-20T02:26:02.286Z,20.42
2018-02-20T02:26:33.913Z,20.41
2018-02-20T02:27:05.538Z,20.41
2018-02-20T02:27:37.162Z,20.45
2018-02-20T02:28:08.786Z,20.46
2018-02-20T02:28:40.410Z,20.47
2018-02-20T02:29:12.038Z,20.53
2018-02-20T02:29:43.662Z,20.52
2018-02-20T02:30:15.292Z,20.53
2018-02-20T02:30:46.923Z,20.51
2018-02-20T02:31:18.611Z,20.54
2018-02-20T02:31:50.246Z,20.57
2018-02-20T02:32:21.883Z,20.60
2018-02-20T02:32:53.506Z,20.58
2018-02-20T02:33:25.129Z,20.60
2018-02-20T02:33:56.750Z,20.59
2018-02-20T02:34:28.379Z,20.57
2018-02-20T02:35:00.006Z,20.57
2018-02-20T02:35:31.634Z,20.52
2018-02-20T02:36:03.263Z,20.52
2018-02-20T02:36:34.946Z,20.54
2018-02-20T02:37:06.570Z,20.55
2018-02-20T02:37:38.200Z,20.56
2018-02-20T02:38:09.831Z,20.57
2018-02-20T02:38:41.466Z,20.55
2018-02-20T02:39:13.101Z,20.50
2018-02-20T02:39:44.739Z,20.51
2018-02-20T02:40:16.365Z,20.54
2018-02-20T02:40:47.997Z,20.55
2018-02-20T02:41:19.631Z,20.55
2018-02-20T02:41:51.317Z,20.55
2018-02-20T02:42:22.937Z,20.54
2018-02-20T02:42:54.558Z,20.57
2018-02-20T02:43:26.183Z,20.55
2018-02-20T02:43:57.820Z,20.55
2018-02-20T02:44:29.466Z,20.53
2018-02-20T02:45:01.089Z,20.55
2018-02-20T02:45:32.716Z,20.52
2018-02-20T02:46:04.345Z,20.52
2018-02-20T02:46:35.975Z,20.52
2018-02-20T02:47:07.642Z,20.51
2018-02-20T02:47:39.323Z,20.52
2018-02-20T02:48:10.950Z,20.49
2018-02-20T02:48:42.577Z,20.55
2018-02-20T02:49:14.202Z,20.57
2018-02-20T02:49:45.826Z,20.61
2018-02-20T02:50:17.450Z,20.59
2018-02-20T02:50:49.073Z,20.54
2018-02-20T02:51:20.697Z,20.55
2018-02-20T02:51:52.326Z,20.52
2018-02-20T02:52:23.956Z,20.53
2018-02-20T02:52:55.591Z,20.49
2018-02-20T02:53:27.221Z,20.48
2018-02-20T02:53:58.848Z,20.50
2018-02-20T02:54:30.479Z,20.51
2018-02-20T02:55:02.109Z,20.50
2018-02-20T02:55:33.743Z,20.50
2018-02-20T02:56:05.393Z,20.49
2018-02-20T02:56:37.066Z,20.46
2018-02-20T02:57:08.690Z,20.45
2018-02-20T02:57:40.317Z,20.47
2018-02-20T02:58:11.942Z,20.51
2018-02-20T02:58:43.574Z,20.46
2018-02-20T02:59:15.207Z,20.37
2018-02-20T02:59:46.889Z,20.48
2018-02-20T03:00:18.518Z,20.50
2018-02-20T03:00:50.141Z,20.49
2018-02-20T03:01:21.791Z,20.47
2018-02-20T03:01:53.423Z,20.45
2018-02-20T03:02:25.094Z,20.44
2018-02-20T03:02:56.718Z,20.42
2018-02-20T03:03:28.342Z,20.39
2018-02-20T03:03:59.975Z,20.35
2018-02-20T03:04:31.598Z,20.38
2018-02-20T03:05:03.229Z,20.37
2018-02-20T03:05:34.859Z,20.36
2018-02-20T03:06:06.482Z,20.34
2018-02-20T03:06:38.109Z,20.36
2018-02-20T03:07:09.784Z,20.33
2018-02-20T03:07:41.406Z,20.31
2018-02-20T03:08:13.078Z,20.28
2018-02-20T03:08:44.697Z,20.29
2018-02-20T03:09:16.317Z,20.26
2018-02-20T03:09:47.943Z,20.23
2018-02-20T03:10:19.566Z,20.22
2018-02-20T03:10:51.195Z,20.18
2018-02-20T03:11:22.822Z,20.18
2018-02-20T03:11:54.446Z,20.18
2018-02-20T03:12:26.074Z,20.17
2018-02-20T03:12:57.706Z,20.16
2018-02-20T03:13:29.330Z,20.14
2018-02-20T03:14:00.959Z,20.14
2018-02-20T03:14:32.590Z,20.14
2018-02-20T03:15:04.218Z,20.14
2018-02-20T03:15:35.847Z,20.08
2018-02-20T03:16:07.474Z,20.07
2018-02-20T03:16:39.097Z,20.05
2018-02-20T03:17:10.766Z,20.06
2018-02-20T03:17:42.391Z,20.05
2018-02-20T03:18:14.013Z,20.06
2018-02-20T03:18:45.633Z,20.06
2018-02-20T03:19:17.257Z,20.06
2018-02-20T03:19:48.878Z,20.04
2018-02-20T03:20:20.501Z,20.02
2018-02-20T03:20:52.122Z,20.00
2018-02-20T03:21:23.746Z,19.99
2018-02-20T03:21:55.410Z,20.00
2018-02-20T03:22:27.101Z,20.00
2018-02-20T03:22:58.726Z,20.02
2018-02-20T03:23:30.350Z,20.00
2018-02-20T03:24:01.977Z,20.02
2018-02-20T03:24:33.602Z,20.03
2018-02-20T03:25:05.227Z,20.04
2018-02-20T03:25:36.856Z,20.05
2018-02-20T03:26:08.483Z,20.06
2018-02-20T03:26:40.110Z,20.09
2018-02-20T03:27:11.737Z,20.08
2018-02-20T03:27:43.406Z,20.12
2018-02-20T03:28:15.034Z,20.20
2018-02-20T03:28:46.657Z,20.20
2018-02-20T03:29:18.322Z,20.18
2018-02-20T03:29:49.954Z,20.15
2018-02-20T03:30:21.583Z,20.10
2018-02-20T03:30:53.218Z,20.08
2018-02-20T03:31:24.841Z,20.10
2018-02-20T03:31:56.462Z,20.11
2018-02-20T03:32:28.086Z,20.11
2018-02-20T03:32:59.750Z,20.00
2018-02-20T03:33:31.374Z,20.14
2018-02-20T03:34:03.047Z,20.14
2018-02-20T03:34:34.675Z,20.14
2018-02-20T03:35:06.302Z,20.14
2018-02-20T03:35:37.926Z,20.15
2018-02-20T03:36:09.550Z,20.14
2018-02-20T03:36:41.182Z,20.17
2018-02-20T03:37:12.806Z,20.17
2018-02-20T03:37:44.430Z,20.21
2018-02-20T03:38:16.058Z,20.22
2018-02-20T03:38:47.682Z,20.23
2018-02-20T03:39:19.350Z,20.24
2018-02-20T03:39:50.974Z,20.25
2018-02-20T03:40:22.598Z,20.24
2018-02-20T03:40:54.270Z,20.25
2018-02-20T03:41:25.894Z,20.26
2018-02-20T03:41:57.517Z,20.25
2018-02-20T03:42:29.146Z,20.27
2018-02-20T03:43:00.778Z,20.29
2018-02-20T03:43:32.402Z,20.30
2018-02-20T03:44:04.082Z,20.30
2018-02-20T03:44:35.711Z,20.33
2018-02-20T03:45:07.334Z,20.36
2018-02-20T03:45:38.963Z,20.35
2018-02-20T03:46:10.593Z,20.37
2018-02-20T03:46:42.218Z,20.37
2018-02-20T03:47:13.850Z,20.38
2018-02-20T03:47:45.470Z,20.35
2018-02-20T03:48:17.093Z,20.37
2018-02-20T03:48:48.713Z,20.39
2018-02-20T03:49:20.378Z,20.40
2018-02-20T03:49:52.006Z,20.44
2018-02-20T03:50:23.630Z,20.45
2018-02-20T03:50:55.257Z,20.46
2018-02-20T03:51:26.886Z,20.50
2018-02-20T03:51:58.514Z,20.49
2018-02-20T03:52:30.138Z,20.49
2018-02-20T03:53:01.769Z,20.53
2018-02-20T03:53:33.398Z,20.55
2018-02-20T03:54:05.022Z,20.55
2018-02-20T03:54:36.649Z,20.59
2018-02-20T03:55:08.280Z,20.57
2018-02-20T03:55:39.905Z,20.55
2018-02-20T03:56:11.538Z,20.55
2018-02-20T03:56:43.170Z,20.56
2018-02-20T03:57:14.793Z,20.58
2018-02-20T03:57:46.417Z,20.61
2018-02-20T03:58:18.050Z,20.60
2018-02-20T03:58:49.677Z,20.61
2018-02-20T03:59:21.358Z,20.63
2018-02-20T03:59:52.981Z,20.65
2018-02-20T04:00:24.605Z,20.64
2018-02-20T04:00:56.225Z,20.68
2018-02-20T04:01:27.858Z,20.68
2018-02-20T04:01:59.484Z,20.71
2018-02-20T04:02:31.110Z,20.71
2018-02-20T04:03:02.800Z,20.68
2018-02-20T04:03:34.430Z,20.68
2018-02-20T04:04:06.054Z,20.69
2018-02-20T04:04:37.718Z,20.72
2018-02-20T04:05:09.352Z,20.72
2018-02-20T04:05:40.982Z,20.72
2018-02-20T04:06:12.606Z,20.71
2018-02-20T04:06:44.230Z,20.67
2018-02-20T04:07:15.853Z,20.56
2018-02-20T04:07:47.481Z,20.64
2018-02-20T04:08:19.111Z,20.67
2018-02-20T04:08:50.734Z,20.68
2018-02-20T04:09:22.410Z,20.69
2018-02-20T04:09:54.034Z,20.66
2018-02-20T04:10:25.659Z,20.63
2018-02-20T04:10:57.282Z,20.63
2018-02-20T04:11:28.910Z,20.66
2018-02-20T04:12:00.538Z,20.65
2018-02-20T04:12:32.166Z,20.66
2018-02-20T04:13:03.794Z,20.68
2018-02-20T04:13:35.424Z,20.66
2018-02-20T04:14:07.058Z,20.65
2018-02-20T04:14:38.743Z,20.63
2018-02-20T04:15:10.382Z,20.64
2018-02-20T04:15:42.006Z,20.63
2018-02-20T04:16:13.635Z,20.60
2018-02-20T04:16:45.257Z,20.58
2018-02-20T04:17:16.886Z,20.59
2018-02-20T04:17:48.514Z,20.57
2018-02-20T04:18:20.138Z,20.57
2018-02-20T04:18:51.766Z,20.59
2018-02-20T04:19:23.400Z,20.61
2018-02-20T04:19:55.075Z,20.60
2018-02-20T04:20:26.702Z,20.58
2018-02-20T04:20:58.326Z,20.60
2018-02-20T04:21:29.954Z,20.61
2018-02-20T04:22:01.594Z,20.59
2018-02-20T04:22:33.221Z,20.56
2018-02-20T04:23:04.848Z,20.58
2018-02-20T04:23:36.474Z,20.58
2018-02-20T04:24:08.145Z,20.56
2018-02-20T04:24:39.766Z,20.56
2018-02-20T04:25:11.390Z,20.53
2018-02-20T04:25:43.010Z,20.53
2018-02-20T04:26:14.638Z,20.48
2018-02-20T04:26:46.258Z,20.48
2018-02-20T04:27:17.881Z,20.47
2018-02-20T04:27:49.506Z,20.44
2018-02-20T04:28:21.129Z,20.47
2018-02-20T04:28:52.754Z,20.43
2018-02-20T04:29:24.378Z,20.40
2018-02-20T04:29:56.002Z,20.39
2018-02-20T04:30:27.626Z,20.37
2018-02-20T04:30:59.254Z,20.33
2018-02-20T04:31:30.877Z,20.29
2018-02-20T04:32:02.506Z,20.25
2018-02-20T04:32:34.130Z,20.24
2018-02-20T04:33:05.754Z,20.12
2018-02-20T04:33:37.378Z,20.18
2018-02-20T04:34:09.056Z,20.17
2018-02-20T04:34:40.686Z,20.16
2018-02-20T04:35:12.310Z,20.15
2018-02-20T04:35:43.942Z,20.14
2018-02-20T04:36:15.566Z,20.15
2018-02-20T04:36:47.189Z,20.14
2018-02-20T04:37:18.813Z,20.16
2018-02-20T04:37:50.437Z,20.16
2018-02-20T04:38:22.074Z,20.14
2018-02-20T04:38:53.703Z,20.13
2018-02-20T04:39:25.378Z,20.12
2018-02-20T04:39:57.001Z,20.09
2018-02-20T04:40:28.625Z,20.06
2018-02-20T04:41:00.249Z,20.06
2018-02-20T04:41:31.870Z,20.05
2018-02-20T04:42:03.498Z,20.03
2018-02-20T04:42:35.122Z,20.03
2018-02-20T04:43:06.750Z,20.04
2018-02-20T04:43:38.378Z,20.02
2018-02-20T04:44:10.003Z,20.02
2018-02-20T04:44:41.634Z,19.99
2018-02-20T04:45:13.264Z,19.96
2018-02-20T04:45:44.931Z,19.98
2018-02-20T04:46:16.554Z,19.99
2018-02-20T04:46:48.210Z,19.99
2018-02-20T04:47:19.844Z,19.96
2018-02-20T04:47:51.470Z,19.92
2018-02-20T04:48:23.095Z,19.93
2018-02-20T04:48:54.722Z,19.94
2018-02-20T04:49:26.354Z,19.92
2018-02-20T04:49:57.973Z,19.93
2018-02-20T04:50:29.593Z,19.94
2018-02-20T04:51:01.227Z,19.65
2018-02-20T04:51:32.849Z,19.98
2018-02-20T04:52:04.611Z,19.91
2018-02-20T04:52:36.234Z,19.97
2018-02-20T04:53:07.867Z,19.99
2018-02-20T04:53:39.497Z,20.00
2018-02-20T04:54:11.121Z,19.99
2018-02-20T04:54:42.746Z,20.04
2018-02-20T04:55:14.374Z,20.07
2018-02-20T04:55:45.998Z,20.08
2018-02-20T04:56:17.626Z,20.08
2018-02-20T04:56:49.251Z,20.11
2018-02-20T04:57:20.922Z,20.10
2018-02-20T04:57:52.550Z,20.15
2018-02-20T04:58:24.173Z,20.16
2018-02-20T04:58:55.839Z,20.16
2018-02-20T04:59:27.470Z,20.18
2018-02-20T04:59:59.098Z,20.19
2018-02-20T05:00:30.722Z,20.19
2018-02-20T05:01:02.342Z,20.19
2018-02-20T05:01:33.970Z,20.16
2018-02-20T05:02:05.591Z,20.17
2018-02-20T05:02:37.213Z,20.18
2018-02-20T05:03:08.838Z,20.18
2018-02-20T05:03:40.466Z,20.20
2018-02-20T05:04:12.134Z,20.21
2018-02-20T05:04:43.758Z,20.19
2018-02-20T05:05:15.381Z,20.17
2018-02-20T05:05:47.005Z,20.17
2018-02-20T05:06:18.626Z,20.17
2018-02-20T05:06:50.363Z,20.18
2018-02-20T05:07:21.990Z,20.16
2018-02-20T05:07:53.625Z,20.14
2018-02-20T05:08:25.249Z,20.12
2018-02-20T05:08:56.919Z,20.11
2018-02-20T05:09:28.543Z,20.09
2018-02-20T05:10:00.174Z,20.07
2018-02-20T05:10:31.807Z,20.03
2018-02-20T05:11:03.431Z,20.00
2018-02-20T05:11:35.060Z,19.96
2018-02-20T05:12:06.691Z,19.94
2018-02-20T05:12:38.334Z,19.93
2018-02-20T05:13:09.962Z,19.91
2018-02-20T05:13:41.614Z,19.89
2018-02-20T05:14:13.303Z,19.88
2018-02-20T05:14:44.928Z,19.89
2018-02-20T05:15:16.554Z,19.88
2018-02-20T05:15:48.638Z,19.88
2018-02-20T05:16:20.273Z,19.87
2018-02-20T05:16:51.893Z,19.88
2018-02-20T05:17:23.518Z,19.89
2018-02-20T05:17:55.142Z,19.88
2018-02-20T05:18:26.774Z,19.91
2018-02-20T05:18:58.399Z,19.91
2018-02-20T05:19:30.066Z,19.96
2018-02-20T05:20:01.698Z,19.98
2018-02-20T05:20:33.326Z,20.00
2018-02-20T05:21:04.950Z,20.04
2018-02-20T05:21:36.573Z,20.07
2018-02-20T05:22:08.244Z,20.08
2018-02-20T05:22:39.875Z,20.08
2018-02-20T05:23:11.497Z,20.12
2018-02-20T05:23:43.121Z,20.11
2018-02-20T05:24:14.742Z,20.10
2018-02-20T05:24:46.402Z,20.11
2018-02-20T05:25:18.027Z,20.13
2018-02-20T05:25:49.701Z,20.12
2018-02-20T05:26:21.330Z,20.14
2018-02-20T05:26:52.962Z,20.17
2018-02-20T05:27:24.587Z,20.18
2018-02-20T05:27:56.210Z,20.18
2018-02-20T05:28:27.839Z,20.21
2018-02-20T05:28:59.466Z,20.26
2018-02-20T05:29:31.090Z,20.25
2018-02-20T05:30:02.719Z,20.30
2018-02-20T05:30:34.346Z,20.31
2018-02-20T05:31:06.026Z,20.36
2018-02-20T05:31:37.650Z,20.43
2018-02-20T05:32:09.274Z,20.48
2018-02-20T05:32:40.906Z,20.52
2018-02-20T05:33:12.534Z,20.51
2018-02-20T05:33:44.179Z,20.54
2018-02-20T05:34:15.802Z,20.56
2018-02-20T05:34:47.426Z,20.61
2018-02-20T05:35:19.059Z,20.63
2018-02-20T05:35:50.683Z,20.63
2018-02-20T05:36:22.349Z,20.66
2018-02-20T05:36:53.975Z,20.64
2018-02-20T05:37:25.606Z,20.64
2018-02-20T05:37:57.278Z,20.64
2018-02-20T05:38:28.906Z,20.65
2018-02-20T05:39:00.538Z,20.68
2018-02-20T05:39:32.165Z,20.69
2018-02-20T05:40:03.793Z,20.63
2018-02-20T05:40:35.417Z,20.64
2018-02-20T05:41:07.046Z,20.65
2018-02-20T05:41:38.670Z,20.65
2018-02-20T05:42:10.303Z,20.67
2018-02-20T05:42:41.934Z,20.65
2018-02-20T05:43:13.598Z,20.66
2018-02-20T05:43:45.234Z,20.63
2018-02-20T05:44:16.862Z,20.63
2018-02-20T05:44:48.486Z,20.63
2018-02-20T05:45:20.111Z,20.62
2018-02-20T05:45:51.735Z,20.63
2018-02-20T05:46:23.363Z,20.60
2018-02-20T05:46:54.990Z,20.60
2018-02-20T05:47:26.663Z,20.61
2018-02-20T05:47:58.295Z,20.61
2018-02-20T05:48:29.918Z,20.61
2018-02-20T05:49:01.542Z,20.60
2018-02-20T05:49:33.169Z,20.59
2018-02-20T05:50:04.798Z,20.57
2018-02-20T05:50:36.477Z,20.56
2018-02-20T05:51:08.107Z,20.52
2018-02-20T05:51:39.738Z,20.51
2018-02-20T05:52:11.367Z,20.51
2018-02-20T05:52:42.989Z,20.51
2018-02-20T05:53:14.614Z,20.48
2018-02-20T05:53:46.247Z,20.50
2018-02-20T05:54:17.876Z,20.51
2018-02-20T05:54:49.502Z,20.53
2018-02-20T05:55:21.131Z,20.52
2018-02-20T05:55:52.802Z,20.53
2018-02-20T05:56:24.430Z,20.50
2018-02-20T05:56:56.053Z,20.49
2018-02-20T05:57:27.678Z,20.48
2018-02-20T05:57:59.404Z,20.48
2018-02-20T05:58:31.018Z,20.51
2018-02-20T05:59:02.649Z,20.49
2018-02-20T05:59:34.270Z,20.48
2018-02-20T06:00:05.899Z,20.51
2018-02-20T06:00:37.527Z,20.51
2018-02-20T06:01:09.154Z,20.52
2018-02-20T06:01:40.781Z,20.51
2018-02-20T06:02:12.406Z,20.51
2018-02-20T06:02:44.030Z,20.50
2018-02-20T06:03:15.711Z,20.46
2018-02-20T06:03:47.342Z,20.44
2018-02-20T06:04:18.967Z,20.42
2018-02-20T06:04:50.611Z,20.40
2018-02-20T06:05:22.274Z,20.44
2018-02-20T06:05:53.902Z,20.46
2018-02-20T06:06:25.535Z,20.45
2018-02-20T06:06:57.166Z,20.44
2018-02-20T06:07:28.794Z,20.45
2018-02-20T06:08:00.421Z,20.44
2018-02-20T06:08:32.049Z,20.43
2018-02-20T06:09:03.695Z,20.43
2018-02-20T06:09:35.360Z,20.42
2018-02-20T06:10:06.987Z,20.40
2018-02-20T06:10:38.882Z,20.38
2018-02-20T06:11:10.506Z,20.40
2018-02-20T06:11:42.132Z,20.35
2018-02-20T06:12:13.766Z,20.35
2018-02-20T06:12:45.426Z,20.38
2018-02-20T06:13:17.054Z,20.38
2018-02-20T06:13:48.678Z,20.39
2018-02-20T06:14:20.306Z,20.37
2018-02-20T06:14:51.934Z,20.36
2018-02-20T06:15:23.558Z,20.36
2018-02-20T06:15:55.186Z,20.35
2018-02-20T06:16:26.809Z,20.34
2018-02-20T06:16:58.435Z,20.36
2018-02-20T06:17:30.062Z,20.38
2018-02-20T06:18:01.731Z,20.38
2018-02-20T06:18:33.353Z,20.38
2018-02-20T06:19:05.027Z,20.36
2018-02-20T06:19:36.649Z,20.36
2018-02-20T06:20:08.274Z,20.34
2018-02-20T06:20:39.902Z,20.33
2018-02-20T06:21:11.534Z,20.30
2018-02-20T06:21:43.158Z,20.31
2018-02-20T06:22:14.782Z,20.30
2018-02-20T06:22:46.406Z,20.29
2018-02-20T06:23:18.030Z,20.28
2018-02-20T06:23:49.654Z,20.28
2018-02-20T06:24:21.278Z,20.24
2018-02-20T06:24:52.909Z,20.24
2018-02-20T06:25:24.534Z,20.23
2018-02-20T06:25:56.161Z,20.26
2018-02-20T06:26:27.830Z,20.25
2018-02-20T06:26:59.461Z,20.23
2018-02-20T06:27:31.081Z,20.24
2018-02-20T06:28:02.707Z,20.22
2018-02-20T06:28:34.338Z,20.23
2018-02-20T06:29:05.961Z,20.23
2018-02-20T06:29:37.586Z,20.21
2018-02-20T06:30:09.215Z,20.22
2018-02-20T06:30:40.849Z,20.19
2018-02-20T06:31:12.499Z,20.16
2018-02-20T06:31:44.181Z,20.19
2018-02-20T06:32:15.802Z,20.18
2018-02-20T06:32:47.426Z,20.06
2018-02-20T06:33:19.051Z,20.12
2018-02-20T06:33:50.678Z,20.11
2018-02-20T06:34:22.306Z,20.11
2018-02-20T06:34:53.961Z,20.12
2018-02-20T06:35:25.590Z,20.14
2018-02-20T06:35:57.218Z,20.11
2018-02-20T06:36:28.842Z,20.14
2018-02-20T06:37:00.466Z,20.15
2018-02-20T06:37:32.090Z,20.17
2018-02-20T06:38:03.719Z,20.19
2018-02-20T06:38:35.341Z,20.23
2018-02-20T06:39:06.966Z,20.26
2018-02-20T06:39:38.590Z,20.25
2018-02-20T06:40:10.215Z,20.25
2018-02-20T06:40:41.844Z,20.25
2018-02-20T06:41:13.475Z,20.23
2018-02-20T06:41:45.107Z,20.20
2018-02-20T06:42:16.786Z,20.18
2018-02-20T06:42:48.415Z,20.18
2018-02-20T06:43:20.042Z,20.18
2018-02-20T06:43:51.671Z,20.16
2018-02-20T06:44:23.302Z,20.17
2018-02-20T06:44:54.931Z,20.18
2018-02-20T06:45:26.563Z,20.19
2018-02-20T06:45:58.191Z,20.17
2018-02-20T06:46:29.823Z,20.15
2018-02-20T06:47:01.450Z,20.15
2018-02-20T06:47:33.117Z,20.18